Time;durP1;ratioP1;P1;durP2;ratioP2;P2;SDS_P1;SDS_P2;PMS_P1;PMS_P2;Temp;Humidity;BMP_temperature;BMP_pressure;BME280_temperature;BME280_humidity;BME280_pressure;Samples;Min_cycle;Max_cycle;Signal;HPM_P1;HPM_P2
2021/11/19 00:02:31;;;;;;;;;14.20;12.80;;;;;13.70;44.56;99321.22;6264030;27;97457;-65
2021/11/19 00:05:40;;;;;;;;;17.00;15.00;;;;;13.76;44.01;99320.31;6258498;27;97152;-65
2021/11/19 00:08:45;;;;;;;;;15.00;14.00;;;;;13.62;44.63;99305.31;6261690;27;96515;-67
2021/11/19 00:11:50;;;;;;;;;15.00;14.00;;;;;13.52;44.70;99313.16;6264116;27;96621;-68
2021/11/19 00:14:53;;;;;;;;;15.00;14.00;;;;;13.53;44.66;99322.97;6245036;27;96731;-69
2021/11/19 00:17:57;;;;;;;;;15.00;13.00;;;;;13.56;44.64;99322.47;6262437;27;96491;-66
2021/11/19 00:21:02;;;;;;;;;13.00;12.00;;;;;13.54;44.88;99321.03;6244581;27;97838;-65
2021/11/19 00:24:07;;;;;;;;;13.00;12.00;;;;;13.48;45.03;99300.31;6264073;27;97477;-69
2021/11/19 00:27:13;;;;;;;;;12.80;11.80;;;;;13.49;44.90;99307.41;6228924;27;97274;-68
2021/11/19 00:30:18;;;;;;;;;12.00;11.60;;;;;13.32;45.10;99318.03;6254331;27;97887;-67
2021/11/19 00:33:22;;;;;;;;;14.50;13.00;;;;;13.39;44.88;99322.28;6247734;27;97579;-68
2021/11/19 00:36:29;;;;;;;;;13.00;12.00;;;;;13.53;44.88;99311.28;6241184;27;97415;-65
2021/11/19 00:39:33;;;;;;;;;15.00;13.00;;;;;13.43;45.07;99314.56;6261784;27;96740;-68
2021/11/19 00:42:38;;;;;;;;;14.00;13.00;;;;;13.39;44.89;99311.47;6240394;27;97427;-65
2021/11/19 00:45:41;;;;;;;;;12.80;11.40;;;;;13.38;45.07;99309.00;6245581;27;96783;-66
2021/11/19 00:48:47;;;;;;;;;12.00;10.00;;;;;13.49;44.97;99312.81;6263766;27;97404;-66
2021/11/19 00:51:55;;;;;;;;;11.00;11.00;;;;;13.51;44.84;99303.38;6231496;27;96813;-69
2021/11/19 00:55:00;;;;;;;;;13.40;12.20;;;;;13.53;44.73;99301.28;6239385;27;96520;-66
2021/11/19 00:58:04;;;;;;;;;12.50;12.00;;;;;13.51;44.81;99289.00;6256551;27;97471;-68
2021/11/19 01:01:12;;;;;;;;;12.60;12.00;;;;;13.54;44.62;99297.50;6242157;27;96457;-68
2021/11/19 01:04:18;;;;;;;;;12.40;12.00;;;;;13.60;44.76;99290.34;6222303;27;97405;-68
2021/11/19 01:07:23;;;;;;;;;11.00;11.00;;;;;13.50;44.82;99284.66;6241094;27;97068;-68
2021/11/19 01:10:31;;;;;;;;;12.00;11.50;;;;;13.36;44.87;99274.00;6224506;27;98390;-68
2021/11/19 01:13:38;;;;;;;;;12.60;11.00;;;;;13.39;45.19;99297.91;6245253;27;96557;-69
2021/11/19 01:16:46;;;;;;;;;11.00;10.00;;;;;13.49;45.11;99281.09;6244804;27;98837;-65
2021/11/19 01:19:55;;;;;;;;;10.00;9.00;;;;;13.45;45.43;99291.59;6258126;27;96802;-69
2021/11/19 01:23:02;;;;;;;;;8.40;8.40;;;;;13.29;46.00;99281.41;6257044;27;97485;-69
2021/11/19 01:26:07;;;;;;;;;8.20;8.20;;;;;13.39;45.80;99287.09;6237862;27;96684;-66
2021/11/19 01:29:14;;;;;;;;;8.20;7.00;;;;;13.24;46.17;99275.84;6245096;27;97086;-69
2021/11/19 01:32:26;;;;;;;;;9.50;8.00;;;;;13.29;46.42;99256.22;6237059;27;96686;-69
2021/11/19 01:35:58;;;;;;;;;8.25;8.25;;;;;13.22;46.20;99260.91;6245909;27;97111;-66
2021/11/19 01:39:17;;;;;;;;;8.00;7.20;;;;;13.30;46.22;99263.25;6254774;27;96651;-66
2021/11/19 01:42:44;;;;;;;;;9.00;9.00;;;;;13.40;45.85;99264.38;6236512;27;97512;-66
2021/11/19 01:45:50;;;;;;;;;7.60;7.60;;;;;13.37;46.21;99264.84;6222863;27;97432;-68
2021/11/19 01:48:58;;;;;;;;;10.00;9.00;;;;;13.31;46.19;99264.94;6219720;27;97816;-68
2021/11/19 01:52:05;;;;;;;;;9.00;8.40;;;;;13.41;46.03;99260.59;6240873;27;98697;-65
2021/11/19 01:55:16;;;;;;;;;10.40;8.80;;;;;13.35;46.15;99269.66;6236218;27;97052;-65
2021/11/19 01:58:25;;;;;;;;;9.40;8.00;;;;;13.37;45.92;99269.44;6240891;27;96526;-68
2021/11/19 02:01:40;;;;;;;;;10.75;9.00;;;;;13.30;46.14;99277.63;6261609;27;96572;-65
2021/11/19 02:04:47;;;;;;;;;9.40;9.00;;;;;13.40;45.92;99264.38;6241314;27;97331;-69
2021/11/19 02:07:54;;;;;;;;;10.00;8.20;;;;;13.29;46.13;99261.63;6216872;27;98390;-65
2021/11/19 02:11:32;;;;;;;;;11.40;11.00;;;;;13.36;45.99;99256.94;6239286;27;97184;-65
2021/11/19 02:14:45;;;;;;;;;10.00;9.40;;;;;13.36;45.99;99248.81;6223075;27;99463;-69
2021/11/19 02:17:52;;;;;;;;;11.00;10.00;;;;;13.28;46.19;99236.44;6258035;27;96464;-69
2021/11/19 02:20:59;;;;;;;;;9.00;9.00;;;;;13.09;46.46;99226.69;6254743;27;96831;-65
2021/11/19 02:24:07;;;;;;;;;9.25;9.25;;;;;13.18;46.51;99246.16;6242036;27;97000;-65
2021/11/19 02:27:15;;;;;;;;;9.40;8.40;;;;;13.19;46.70;99229.72;6241490;27;97263;-66
2021/11/19 02:30:23;;;;;;;;;10.00;8.80;;;;;13.24;46.57;99229.81;6242762;27;97941;-68
2021/11/19 02:33:31;;;;;;;;;12.80;10.80;;;;;13.27;46.50;99236.66;6225472;27;97418;-66
2021/11/19 02:36:40;;;;;;;;;10.00;10.00;;;;;13.08;46.79;99222.31;6243576;27;97563;-66
2021/11/19 02:39:47;;;;;;;;;11.00;10.00;;;;;13.09;47.00;99213.16;6218453;28;97535;-65
2021/11/19 02:42:54;;;;;;;;;9.67;8.00;;;;;13.05;47.15;99219.25;6234096;27;96981;-67
2021/11/19 02:45:59;;;;;;;;;9.40;8.60;;;;;13.02;47.28;99217.81;6223929;27;96983;-67
2021/11/19 02:49:02;;;;;;;;;9.75;9.00;;;;;12.97;47.39;99229.34;6227359;27;97801;-68
2021/11/19 02:52:09;;;;;;;;;11.00;10.00;;;;;12.86;47.94;99213.88;6236602;27;97432;-69
2021/11/19 02:55:17;;;;;;;;;8.60;8.20;;;;;12.94;47.66;99215.44;6236199;27;97125;-65
2021/11/19 02:58:26;;;;;;;;;10.00;9.00;;;;;12.90;47.81;99209.63;6244151;27;97463;-70
2021/11/19 03:01:32;;;;;;;;;10.00;9.00;;;;;12.89;48.08;99202.59;6229575;27;98404;-66
2021/11/19 03:04:38;;;;;;;;;12.00;10.50;;;;;12.98;48.04;99203.09;6240195;27;97237;-69
2021/11/19 03:07:42;;;;;;;;;11.00;10.00;;;;;13.01;48.16;99208.88;6246905;27;96767;-69
2021/11/19 03:10:49;;;;;;;;;11.00;10.50;;;;;13.03;48.11;99201.38;6247069;27;96752;-66
2021/11/19 03:13:53;;;;;;;;;12.80;11.40;;;;;12.99;48.48;99207.47;6228961;28;98647;-69
2021/11/19 03:16:57;;;;;;;;;13.00;10.00;;;;;12.92;48.86;99196.72;6221997;28;96604;-66
2021/11/19 03:20:01;;;;;;;;;11.00;10.00;;;;;12.77;49.50;99192.75;6260743;27;96449;-67
2021/11/19 03:23:05;;;;;;;;;13.00;11.00;;;;;12.84;49.23;99185.41;6245739;27;96512;-69
2021/11/19 03:26:10;;;;;;;;;13.00;11.00;;;;;12.90;49.20;99179.06;6236685;27;99447;-69
2021/11/19 03:29:16;;;;;;;;;11.00;11.00;;;;;12.69;49.89;99166.03;6237767;27;97004;-69
2021/11/19 03:32:21;;;;;;;;;13.60;11.40;;;;;12.68;50.13;99175.19;6261149;27;97413;-67
2021/11/19 03:35:27;;;;;;;;;12.00;11.00;;;;;12.60;50.22;99176.34;6259460;27;97035;-67
2021/11/19 03:38:33;;;;;;;;;11.20;9.80;;;;;12.61;50.52;99169.06;6219719;27;96645;-69
2021/11/19 03:41:38;;;;;;;;;11.00;10.00;;;;;12.49;50.81;99177.94;6238988;27;97430;-69
2021/11/19 03:44:47;;;;;;;;;11.75;10.75;;;;;12.65;50.48;99170.25;6229791;27;97484;-69
2021/11/19 03:47:53;;;;;;;;;12.00;10.60;;;;;12.67;50.15;99168.13;6243854;27;96795;-69
2021/11/19 03:51:00;;;;;;;;;11.00;10.00;;;;;12.90;49.91;99174.47;6243465;27;96748;-66
2021/11/19 03:54:04;;;;;;;;;8.25;7.75;;;;;12.92;49.89;99175.06;6254502;27;96410;-70
2021/11/19 03:57:09;;;;;;;;;8.40;8.40;;;;;12.93;49.96;99182.13;6231842;27;96851;-69
2021/11/19 04:00:18;;;;;;;;;11.00;9.00;;;;;12.87;50.01;99191.16;6234189;27;96980;-69
2021/11/19 04:03:25;;;;;;;;;9.00;8.80;;;;;12.95;50.17;99174.59;6209853;28;96697;-66
2021/11/19 04:06:29;;;;;;;;;9.00;8.00;;;;;13.04;50.00;99169.72;6240942;27;97876;-66
2021/11/19 04:09:33;;;;;;;;;10.00;9.50;;;;;13.09;49.91;99169.00;6231810;27;96905;-66
2021/11/19 04:12:37;;;;;;;;;9.00;8.00;;;;;13.15;49.74;99166.22;6232323;27;96701;-69
2021/11/19 04:15:48;;;;;;;;;10.00;9.00;;;;;13.07;50.02;99160.28;6245998;27;97109;-66
2021/11/19 04:18:52;;;;;;;;;9.25;9.00;;;;;13.08;49.97;99175.47;6224268;28;96370;-67
2021/11/19 04:22:00;;;;;;;;;10.00;9.40;;;;;13.18;49.79;99173.91;6228569;27;96662;-66
2021/11/19 04:25:07;;;;;;;;;8.50;8.00;;;;;13.20;49.60;99177.19;6218427;27;98474;-69
2021/11/19 04:28:13;;;;;;;;;8.00;7.00;;;;;13.22;49.55;99185.91;6238006;27;97460;-69
2021/11/19 04:31:47;;;;;;;;;9.00;8.00;;;;;13.31;49.34;99168.28;6243143;27;97037;-69
2021/11/19 04:34:54;;;;;;;;;10.00;9.00;;;;;13.39;49.21;99177.94;6230902;27;96716;-69
2021/11/19 04:38:00;;;;;;;;;9.00;8.00;;;;;13.39;49.46;99162.50;6225068;27;97265;-66
2021/11/19 04:41:05;;;;;;;;;8.60;8.40;;;;;13.31;49.91;99157.44;6228610;27;97021;-68
2021/11/19 04:44:09;;;;;;;;;8.00;8.00;;;;;13.39;49.88;99156.25;6245831;27;97795;-69
2021/11/19 04:47:20;;;;;;;;;9.00;7.00;;;;;13.36;50.40;99160.28;6246535;27;97365;-67
2021/11/19 04:50:30;;;;;;;;;7.50;7.00;;;;;13.37;50.76;99159.22;6221500;27;98436;-67
2021/11/19 04:53:34;;;;;;;;;10.00;9.00;;;;;13.40;50.85;99160.63;6242067;27;96715;-66
2021/11/19 04:56:38;;;;;;;;;11.00;8.20;;;;;13.38;51.21;99162.75;6232539;27;97079;-66
2021/11/19 04:59:42;;;;;;;;;8.50;7.00;;;;;13.10;51.69;99124.63;6232894;27;97152;-69
2021/11/19 05:02:48;;;;;;;;;9.20;9.00;;;;;13.32;51.77;99153.69;6231733;27;96666;-67
2021/11/19 05:06:03;;;;;;;;;9.00;9.00;;;;;13.25;51.97;99152.13;6229687;27;97506;-70
2021/11/19 05:09:09;;;;;;;;;9.00;8.00;;;;;13.10;52.81;99165.22;6233960;27;97503;-67
2021/11/19 05:12:18;;;;;;;;;8.00;8.00;;;;;13.21;52.85;99164.47;6234672;28;97273;-66
2021/11/19 05:15:23;;;;;;;;;11.00;10.00;;;;;13.15;52.94;99151.84;6229340;27;96691;-68
2021/11/19 05:18:29;;;;;;;;;8.00;8.00;;;;;13.09;53.39;99147.38;6229624;27;96787;-66
2021/11/19 05:21:34;;;;;;;;;9.00;8.00;;;;;12.98;53.86;99146.25;6225644;27;97363;-68
2021/11/19 05:24:38;;;;;;;;;9.00;9.00;;;;;12.93;54.25;99154.25;6228838;27;97137;-66
2021/11/19 05:27:43;;;;;;;;;9.75;8.75;;;;;12.89;54.53;99147.66;6240883;27;97496;-66
2021/11/19 05:30:48;;;;;;;;;10.00;9.60;;;;;12.73;54.98;99156.41;6221941;27;96557;-68
2021/11/19 05:33:53;;;;;;;;;11.60;10.00;;;;;12.77;54.77;99158.41;6241759;27;96579;-65
2021/11/19 05:36:57;;;;;;;;;10.00;9.00;;;;;12.78;54.83;99133.03;6230615;27;96679;-68
2021/11/19 05:40:00;;;;;;;;;9.60;8.00;;;;;12.99;54.17;99148.75;6230554;27;97065;-70
2021/11/19 05:43:06;;;;;;;;;12.00;9.00;;;;;12.97;54.31;99155.44;6230416;28;98059;-66
2021/11/19 05:46:36;;;;;;;;;10.00;9.75;;;;;12.90;54.44;99163.63;6239501;27;96574;-68
2021/11/19 05:49:41;;;;;;;;;10.80;9.00;;;;;12.88;54.51;99171.19;6237459;27;97118;-68
2021/11/19 05:52:46;;;;;;;;;10.60;9.00;;;;;12.79;54.72;99169.03;6207589;27;97826;-68
2021/11/19 05:55:52;;;;;;;;;10.40;9.40;;;;;12.78;55.21;99161.97;6207221;27;98352;-65
2021/11/19 05:58:56;;;;;;;;;9.00;8.50;;;;;12.78;55.19;99161.97;6236425;27;97061;-69
2021/11/19 06:02:20;;;;;;;;;11.00;11.00;;;;;12.71;55.50;99170.16;6236325;27;99501;-66
2021/11/19 06:05:45;;;;;;;;;8.60;8.40;;;;;12.67;55.25;99168.97;6238988;27;96426;-69
2021/11/19 06:09:02;;;;;;;;;11.00;9.00;;;;;12.70;55.27;99179.34;6231357;28;97009;-66
2021/11/19 06:12:10;;;;;;;;;10.00;9.00;;;;;12.75;55.18;99168.66;6221205;28;97113;-68
2021/11/19 06:15:17;;;;;;;;;11.80;10.00;;;;;12.62;54.87;99144.47;6238042;27;97490;-69
2021/11/19 06:18:25;;;;;;;;;8.00;7.75;;;;;12.67;55.05;99155.44;6237162;27;96671;-66
2021/11/19 06:21:38;;;;;;;;;7.60;7.60;;;;;12.83;55.41;99186.44;6234386;27;97385;-66
2021/11/19 06:24:45;;;;;;;;;9.00;8.00;;;;;12.94;54.78;99189.22;6253646;27;96615;-67
2021/11/19 06:27:50;;;;;;;;;8.75;8.00;;;;;12.94;55.05;99205.44;6240417;27;96718;-69
2021/11/19 06:30:55;;;;;;;;;9.40;9.00;;;;;12.78;55.38;99199.84;6222675;27;98632;-66
2021/11/19 06:33:59;;;;;;;;;10.40;9.40;;;;;12.87;55.32;99214.69;6208960;27;98289;-66
2021/11/19 06:37:04;;;;;;;;;7.00;7.00;;;;;12.80;55.79;99205.84;6256901;27;97520;-66
2021/11/19 06:40:36;;;;;;;;;12.00;11.00;;;;;12.77;56.04;99203.59;6238994;27;97009;-66
2021/11/19 06:44:02;;;;;;;;;10.00;8.00;;;;;12.71;56.41;99207.19;6234469;27;97475;-68
2021/11/19 06:47:28;;;;;;;;;10.60;9.00;;;;;12.70;56.53;99205.56;6236010;27;96612;-66
2021/11/19 06:50:51;;;;;;;;;10.80;9.40;;;;;12.65;56.78;99208.97;6233307;27;98423;-67
2021/11/19 06:54:21;;;;;;;;;9.00;9.00;;;;;12.59;56.92;99204.44;6234948;27;96802;-70
2021/11/19 06:57:31;;;;;;;;;11.20;10.00;;;;;12.53;57.18;99206.16;6249630;27;96704;-66
2021/11/19 07:00:40;;;;;;;;;11.60;10.00;;;;;12.53;56.94;99189.94;6236426;27;97519;-69
2021/11/19 07:03:45;;;;;;;;;12.00;9.00;;;;;12.68;57.03;99216.59;6238350;27;96682;-68
2021/11/19 07:06:48;;;;;;;;;10.00;9.50;;;;;12.64;57.11;99220.81;6242559;27;97400;-65
2021/11/19 07:09:53;;;;;;;;;11.00;10.00;;;;;12.77;57.05;99225.22;6216734;27;97712;-68
2021/11/19 07:12:57;;;;;;;;;10.40;9.00;;;;;12.81;56.99;99212.91;6234145;27;97908;-68
2021/11/19 07:16:05;;;;;;;;;10.00;10.00;;;;;12.79;56.92;99198.78;6221069;27;96630;-66
2021/11/19 07:19:09;;;;;;;;;9.00;8.00;;;;;12.73;57.42;99202.41;6226027;27;97771;-66
2021/11/19 07:22:13;;;;;;;;;10.60;10.00;;;;;12.84;57.26;99198.94;6222969;27;98395;-69
2021/11/19 07:25:21;;;;;;;;;9.40;8.40;;;;;12.98;57.01;99216.63;6235989;27;96724;-69
2021/11/19 07:28:26;;;;;;;;;9.00;8.00;;;;;12.97;57.09;99221.22;6249496;27;97472;-69
2021/11/19 07:31:49;;;;;;;;;9.80;8.00;;;;;13.04;57.16;99221.13;6254913;27;97100;-66
2021/11/19 07:35:11;;;;;;;;;9.75;8.00;;;;;13.09;56.85;99226.69;6265308;27;96426;-66
2021/11/19 07:38:34;;;;;;;;;8.00;7.60;;;;;13.02;57.15;99224.06;6246611;27;96530;-67
2021/11/19 07:41:59;;;;;;;;;10.25;9.00;;;;;13.06;56.96;99213.59;6208626;27;97654;-69
2021/11/19 07:45:27;;;;;;;;;9.00;8.00;;;;;13.06;57.10;99215.47;6226850;27;97695;-66
2021/11/19 07:48:43;;;;;;;;;9.00;7.40;;;;;13.16;57.06;99221.19;6237038;27;96554;-69
2021/11/19 07:51:50;;;;;;;;;10.00;8.00;;;;;13.03;57.28;99219.47;6242217;27;97412;-66
2021/11/19 07:54:56;;;;;;;;;8.00;8.00;;;;;13.09;57.19;99206.91;6237872;28;96751;-67
2021/11/19 07:58:00;;;;;;;;;7.00;6.00;;;;;13.01;57.41;99218.88;6236090;27;98742;-67
2021/11/19 08:01:07;;;;;;;;;7.40;7.00;;;;;12.77;57.69;99187.34;6243518;27;97667;-67
2021/11/19 08:04:16;;;;;;;;;6.60;6.00;;;;;12.94;57.70;99194.63;6255419;27;98021;-67
2021/11/19 08:07:22;;;;;;;;;7.00;7.00;;;;;13.03;57.77;99214.06;6246647;27;97273;-69
2021/11/19 08:10:26;;;;;;;;;8.40;7.00;;;;;13.05;57.86;99222.75;6250863;27;97372;-68
2021/11/19 08:13:30;;;;;;;;;8.00;7.00;;;;;13.15;57.36;99233.06;6264450;27;96654;-69
2021/11/19 08:16:38;;;;;;;;;8.00;6.40;;;;;13.15;57.45;99228.50;6246224;27;96575;-68
2021/11/19 08:20:11;;;;;;;;;6.75;5.75;;;;;13.21;57.29;99232.16;6255722;27;97427;-69
2021/11/19 08:23:18;;;;;;;;;9.00;7.00;;;;;13.22;57.09;99241.94;6258721;27;96424;-67
2021/11/19 08:26:28;;;;;;;;;7.00;7.00;;;;;13.31;56.84;99245.97;6246266;27;96600;-67
2021/11/19 08:29:36;;;;;;;;;8.00;8.00;;;;;13.11;57.17;99248.09;6256952;27;96692;-67
2021/11/19 08:32:39;;;;;;;;;6.20;6.00;;;;;13.18;57.10;99235.34;6264467;27;97066;-66
2021/11/19 08:35:43;;;;;;;;;9.00;7.00;;;;;13.16;57.32;99259.94;6249866;27;96965;-69
2021/11/19 08:38:47;;;;;;;;;6.20;6.20;;;;;13.13;57.21;99248.75;6258121;27;96629;-69
2021/11/19 08:41:52;;;;;;;;;9.00;7.00;;;;;13.27;57.21;99258.31;6263650;27;97472;-69
2021/11/19 08:44:57;;;;;;;;;9.00;8.00;;;;;13.27;57.12;99261.84;6250957;27;96601;-69
2021/11/19 08:48:23;;;;;;;;;6.00;6.00;;;;;13.31;56.96;99257.63;6264158;27;97172;-69
2021/11/19 08:51:29;;;;;;;;;7.00;6.00;;;;;13.23;57.03;99254.44;6254725;27;97418;-66
2021/11/19 08:54:32;;;;;;;;;7.00;7.00;;;;;13.12;57.52;99239.78;6245493;27;98071;-68
2021/11/19 08:57:36;;;;;;;;;7.00;7.00;;;;;13.30;56.92;99263.25;6230722;27;96789;-66
2021/11/19 09:00:42;;;;;;;;;7.40;7.00;;;;;13.32;56.93;99242.22;6262701;27;96932;-68
2021/11/19 09:03:46;;;;;;;;;7.00;7.00;;;;;13.33;57.30;99257.41;6233802;27;97414;-67
2021/11/19 09:06:50;;;;;;;;;6.80;6.00;;;;;13.07;57.99;99257.72;6262545;27;96998;-66
2021/11/19 09:09:55;;;;;;;;;8.00;6.00;;;;;13.23;57.69;99257.97;6232581;27;96815;-68
2021/11/19 09:13:02;;;;;;;;;8.20;6.20;;;;;13.18;57.68;99263.25;6263457;27;96679;-69
2021/11/19 09:16:11;;;;;;;;;10.20;7.80;;;;;12.97;58.39;99251.00;6262356;27;97460;-66
2021/11/19 09:19:24;;;;;;;;;9.60;9.40;;;;;13.20;58.09;99261.09;6262603;27;96975;-66
2021/11/19 09:22:50;;;;;;;;;8.00;8.00;;;;;13.18;58.40;99243.47;6263073;27;97574;-70
2021/11/19 09:25:59;;;;;;;;;8.75;8.00;;;;;13.20;58.07;99249.44;6250169;27;97461;-69
2021/11/19 09:29:06;;;;;;;;;10.00;9.00;;;;;13.00;58.64;99238.88;6262465;27;97466;-69
2021/11/19 09:32:12;;;;;;;;;8.00;7.80;;;;;13.09;58.64;99244.81;6258171;27;96523;-66
2021/11/19 09:35:19;;;;;;;;;8.50;7.50;;;;;13.08;58.88;99225.03;6254154;27;96418;-66
2021/11/19 09:38:24;;;;;;;;;6.20;6.20;;;;;12.97;58.79;99242.88;6258083;27;97389;-68
2021/11/19 09:41:48;;;;;;;;;7.40;6.20;;;;;13.21;58.56;99237.56;6260882;27;97061;-65
2021/11/19 09:45:31;;;;;;;;;9.00;8.00;;;;;13.33;58.35;99260.13;6208305;28;97534;-67
2021/11/19 09:48:55;;;;;;;;;9.00;7.00;;;;;13.27;58.26;99245.63;6228568;27;97045;-65
2021/11/19 09:52:33;;;;;;;;;6.60;6.20;;;;;13.40;58.08;99245.41;6245542;27;97127;-67
2021/11/19 09:55:49;;;;;;;;;9.60;9.00;;;;;13.60;57.57;99253.25;6245161;27;96558;-69
2021/11/19 09:58:59;;;;;;;;;8.40;7.60;;;;;13.68;57.18;99255.59;6250433;27;98038;-69
2021/11/19 10:02:32;;;;;;;;;7.00;7.00;;;;;13.78;56.84;99249.63;6247400;27;96448;-66
2021/11/19 10:05:46;;;;;;;;;7.00;7.00;;;;;13.79;56.81;99248.56;6245969;27;97511;-69
2021/11/19 10:08:55;;;;;;;;;7.20;6.20;;;;;13.77;56.40;99231.72;6241204;27;96548;-66
2021/11/19 10:12:02;;;;;;;;;8.40;6.60;;;;;13.82;56.70;99243.50;6254734;27;98027;-67
2021/11/19 10:15:11;;;;;;;;;7.00;7.00;;;;;13.96;56.59;99243.28;6246455;27;96822;-66
2021/11/19 10:18:19;;;;;;;;;6.00;5.75;;;;;14.02;56.40;99229.63;6221651;27;97387;-66
2021/11/19 10:21:28;;;;;;;;;6.00;5.75;;;;;13.99;56.37;99210.28;6250450;27;96534;-68
2021/11/19 10:24:39;;;;;;;;;6.00;6.00;;;;;14.02;56.49;99221.50;6242474;27;96399;-69
2021/11/19 10:27:45;;;;;;;;;6.60;6.00;;;;;14.04;56.59;99205.78;6237922;27;96931;-66
2021/11/19 10:30:51;;;;;;;;;6.00;6.00;;;;;14.22;55.96;99200.22;6245311;27;96485;-66
2021/11/19 10:34:08;;;;;;;;;6.00;6.00;;;;;14.13;55.96;99182.69;6241624;27;97135;-65
2021/11/19 10:37:54;;;;;;;;;6.40;5.80;;;;;14.26;55.79;99189.75;6243769;27;97948;-66
2021/11/19 10:41:24;;;;;;;;;7.20;5.20;;;;;14.34;55.69;99186.66;6262107;27;96835;-67
2021/11/19 10:44:46;;;;;;;;;8.00;8.00;;;;;14.32;55.45;99197.75;6262274;27;96403;-70
2021/11/19 10:48:38;;;;;;;;;6.00;6.00;;;;;14.41;55.46;99194.72;6242795;27;98521;-69
2021/11/19 10:52:36;;;;;;;;;7.00;7.00;;;;;14.30;55.74;99188.22;6262243;27;96510;-65
2021/11/19 10:56:14;;;;;;;;;9.00;8.00;;;;;14.24;55.61;99189.97;6221553;27;97564;-69
2021/11/19 10:59:33;;;;;;;;;8.00;8.00;;;;;14.25;55.39;99161.81;6242756;27;97910;-69
2021/11/19 11:02:42;;;;;;;;;8.75;8.50;;;;;14.41;55.66;99194.72;6261613;27;98060;-69
2021/11/19 11:05:55;;;;;;;;;7.33;7.33;;;;;14.36;55.82;99184.59;6254385;27;97408;-67
2021/11/19 11:09:20;;;;;;;;;8.00;7.00;;;;;14.29;55.99;99183.84;6247795;27;96515;-69
2021/11/19 11:12:29;;;;;;;;;7.00;6.60;;;;;14.25;56.10;99180.78;6247695;27;97493;-66
2021/11/19 11:15:37;;;;;;;;;9.00;7.00;;;;;14.26;56.32;99179.72;6233476;27;97439;-67
2021/11/19 11:18:56;;;;;;;;;8.00;7.00;;;;;14.21;56.33;99167.94;6265974;27;96445;-69
2021/11/19 11:22:04;;;;;;;;;8.00;8.00;;;;;14.37;56.12;99185.41;6251996;27;96739;-70
2021/11/19 11:25:14;;;;;;;;;10.00;9.00;;;;;14.38;56.21;99174.31;6259001;27;97457;-69
2021/11/19 11:28:23;;;;;;;;;7.60;7.00;;;;;14.37;56.33;99180.00;6246096;27;98105;-68
2021/11/19 11:31:41;;;;;;;;;7.00;7.00;;;;;14.30;56.44;99170.06;6252304;27;97863;-66
2021/11/19 11:35:10;;;;;;;;;8.00;7.20;;;;;14.38;56.26;99168.06;6233161;27;97782;-69
2021/11/19 11:38:38;;;;;;;;;9.50;8.00;;;;;14.22;56.99;99173.13;6251159;27;97452;-69
2021/11/19 11:41:57;;;;;;;;;8.00;8.00;;;;;14.24;56.97;99165.56;6251279;27;97545;-67
2021/11/19 11:45:23;;;;;;;;;8.00;8.00;;;;;14.22;57.06;99180.44;6241926;27;97025;-65
2021/11/19 11:48:39;;;;;;;;;8.00;8.00;;;;;14.35;56.87;99180.19;6250851;27;97581;-67
2021/11/19 11:51:58;;;;;;;;;9.00;8.00;;;;;14.28;56.87;99174.06;6223731;28;96786;-67
2021/11/19 11:55:23;;;;;;;;;9.75;9.00;;;;;14.31;56.91;99181.72;6238950;27;96755;-69
2021/11/19 11:58:33;;;;;;;;;7.00;6.40;;;;;14.48;56.58;99185.38;6246325;27;97349;-66
2021/11/19 12:01:45;;;;;;;;;8.00;7.80;;;;;14.58;56.15;99180.16;6246822;27;97433;-69
2021/11/19 12:04:58;;;;;;;;;8.00;7.00;;;;;14.66;56.08;99181.69;6232458;27;96725;-66
2021/11/19 12:08:37;;;;;;;;;10.00;8.00;;;;;14.75;55.86;99172.09;6240075;27;98055;-68
2021/11/19 12:12:09;;;;;;;;;9.00;8.00;;;;;14.67;56.01;99181.41;6247555;27;96978;-65
2021/11/19 12:15:44;;;;;;;;;9.00;8.00;;;;;14.76;55.90;99181.06;6222550;27;97387;-68
2021/11/19 12:18:54;;;;;;;;;9.00;8.40;;;;;14.79;55.63;99172.41;6239610;27;98417;-66
2021/11/19 12:22:02;;;;;;;;;10.40;10.00;;;;;14.75;55.85;99174.81;6246966;27;96557;-67
2021/11/19 12:25:46;;;;;;;;;10.00;9.00;;;;;14.68;56.03;99179.53;6237637;27;99598;-68
2021/11/19 12:29:00;;;;;;;;;10.20;9.00;;;;;14.56;56.39;99184.97;6241282;27;97395;-66
2021/11/19 12:32:14;;;;;;;;;11.00;10.00;;;;;14.60;56.42;99182.63;6255798;27;98165;-67
2021/11/19 12:35:24;;;;;;;;;9.00;8.00;;;;;14.55;56.48;99180.66;6243650;27;97072;-69
2021/11/19 12:38:32;;;;;;;;;11.00;11.00;;;;;14.46;56.82;99167.69;6242521;27;97025;-69
2021/11/19 12:41:43;;;;;;;;;9.80;8.00;;;;;14.41;57.08;99178.44;6249399;27;96474;-66
2021/11/19 12:44:59;;;;;;;;;11.00;10.00;;;;;14.45;57.01;99172.28;6252305;27;96479;-65
2021/11/19 12:48:27;;;;;;;;;10.00;10.00;;;;;14.50;57.12;99169.69;6230765;27;96779;-67
2021/11/19 12:51:36;;;;;;;;;11.00;11.00;;;;;14.43;57.29;99168.97;6247953;27;97074;-66
2021/11/19 12:54:50;;;;;;;;;12.00;11.00;;;;;14.39;57.49;99175.13;6260400;27;96620;-67
2021/11/19 12:58:27;;;;;;;;;11.40;11.00;;;;;14.42;57.55;99164.63;6222697;27;98515;-66
2021/11/19 13:01:40;;;;;;;;;12.00;12.00;;;;;14.40;57.58;99150.50;6222777;27;97065;-66
2021/11/19 13:05:00;;;;;;;;;14.25;13.00;;;;;14.31;57.91;99162.75;6254023;27;96598;-66
2021/11/19 13:08:12;;;;;;;;;15.40;13.40;;;;;14.28;57.97;99142.34;6251867;27;97299;-67
2021/11/19 13:11:45;;;;;;;;;14.00;13.50;;;;;14.27;58.01;99142.56;6246537;27;97304;-67
2021/11/19 13:14:50;;;;;;;;;14.00;12.50;;;;;14.43;57.78;99141.84;6242009;27;96595;-66
2021/11/19 13:18:22;;;;;;;;;16.00;14.00;;;;;14.43;57.74;99143.75;6256350;27;96885;-66
2021/11/19 13:21:56;;;;;;;;;14.00;13.00;;;;;14.27;57.94;99150.69;6253090;27;96459;-65
2021/11/19 13:25:05;;;;;;;;;13.60;13.00;;;;;14.30;58.09;99150.25;6122912;28;96769;-68
2021/11/19 13:28:09;;;;;;;;;13.00;12.00;;;;;14.37;57.47;99145.53;6129883;28;97557;-68
2021/11/19 13:31:30;;;;;;;;;12.00;11.00;;;;;14.49;57.66;99162.59;6125417;28;97055;-66
2021/11/19 13:34:47;;;;;;;;;15.00;13.00;;;;;14.55;57.45;99158.13;6135203;28;97648;-66
2021/11/19 13:38:12;;;;;;;;;15.00;13.00;;;;;14.42;57.19;99128.53;6130162;28;96982;-68
2021/11/19 13:41:29;;;;;;;;;16.00;13.50;;;;;14.55;56.95;99161.66;6119842;28;97527;-67
2021/11/19 13:45:03;;;;;;;;;15.00;14.00;;;;;14.53;57.20;99171.91;6117504;28;98067;-66
2021/11/19 13:48:21;;;;;;;;;13.50;13.00;;;;;14.39;57.27;99153.44;6110157;28;99567;-69
2021/11/19 13:51:37;;;;;;;;;14.00;13.00;;;;;14.55;57.04;99164.38;6124515;28;98018;-70
2021/11/19 13:54:45;;;;;;;;;17.00;14.50;;;;;14.63;56.83;99163.97;6129549;28;97203;-68
2021/11/19 13:57:54;;;;;;;;;13.25;12.00;;;;;14.46;57.08;99171.25;6135698;27;98336;-68
2021/11/19 14:01:09;;;;;;;;;16.00;14.00;;;;;14.34;57.04;99140.56;6247689;27;96793;-66
2021/11/19 14:04:25;;;;;;;;;16.60;13.60;;;;;14.65;56.76;99178.16;6224922;27;96844;-65
2021/11/19 14:07:32;;;;;;;;;14.00;13.00;;;;;14.69;56.44;99173.88;6241551;27;96932;-67
2021/11/19 14:10:42;;;;;;;;;16.00;14.00;;;;;14.70;56.44;99178.25;6248759;27;98949;-68
2021/11/19 14:13:48;;;;;;;;;13.00;12.50;;;;;14.60;56.59;99180.75;6248907;27;97355;-66
2021/11/19 14:16:56;;;;;;;;;14.00;12.00;;;;;14.53;56.89;99169.19;6227636;27;96818;-68
2021/11/19 14:23:49;;;;;;;;;16.00;14.40;;;;;14.50;57.19;99171.56;6241343;27;99183;-69
2021/11/19 14:27:11;;;;;;;;;13.00;12.00;;;;;14.54;57.02;99179.00;6224588;27;96709;-69
2021/11/19 14:30:20;;;;;;;;;14.00;14.00;;;;;14.48;57.36;99174.53;6227091;27;97433;-67
2021/11/19 14:33:31;;;;;;;;;15.00;14.25;;;;;14.43;57.47;99177.13;6227289;27;99631;-69
2021/11/19 14:36:48;;;;;;;;;14.50;14.00;;;;;14.48;57.34;99189.97;6238362;27;97202;-67
2021/11/19 14:39:53;;;;;;;;;13.25;12.00;;;;;14.44;57.37;99181.50;6220816;27;98449;-69
2021/11/19 14:42:58;;;;;;;;;13.00;12.60;;;;;14.54;56.96;99183.59;6227266;27;97194;-66
2021/11/19 14:46:05;;;;;;;;;15.50;13.00;;;;;14.45;57.13;99185.84;6243774;27;96686;-66
2021/11/19 14:49:12;;;;;;;;;15.40;14.40;;;;;14.50;57.03;99172.41;6241554;27;97399;-67
2021/11/19 14:52:32;;;;;;;;;14.80;13.80;;;;;14.47;57.10;99180.16;6257730;27;97013;-65
2021/11/19 14:55:39;;;;;;;;;14.00;13.00;;;;;14.42;57.20;99182.78;6236833;27;97741;-67
2021/11/19 14:58:59;;;;;;;;;17.60;15.60;;;;;14.39;57.50;99177.84;6257357;27;96660;-67